createdAt,value
2023-07-02T00:00:39.682Z,16.11
2023-07-02T00:05:41.453Z,16.11
2023-07-02T00:10:47.204Z,16.06
2023-07-02T00:15:51.532Z,15.99
2023-07-02T00:20:56.280Z,15.94
2023-07-02T00:25:58.505Z,15.90
2023-07-02T00:31:00.335Z,15.86
2023-07-02T00:36:02.124Z,15.83
2023-07-02T00:41:08.554Z,15.80
2023-07-02T00:46:21.248Z,15.80
2023-07-02T00:51:25.543Z,15.78
2023-07-02T00:56:28.165Z,15.79
2023-07-02T01:01:30.842Z,15.76
2023-07-02T01:06:51.068Z,15.67
2023-07-02T01:11:59.109Z,15.62
2023-07-02T01:17:04.647Z,15.57
2023-07-02T01:22:06.404Z,15.48
2023-07-02T01:27:08.610Z,15.38
2023-07-02T01:32:10.364Z,15.31
2023-07-02T01:37:12.124Z,15.20
2023-07-02T01:42:18.765Z,15.15
2023-07-02T01:47:21.350Z,15.08
2023-07-02T01:52:28.145Z,14.99
2023-07-02T01:57:31.685Z,14.94
2023-07-02T02:02:35.839Z,14.87
2023-07-02T02:07:40.377Z,14.80
2023-07-02T02:12:46.914Z,14.76
2023-07-02T02:17:49.736Z,14.70
2023-07-02T02:22:51.441Z,14.65
2023-07-02T02:27:55.377Z,14.57
2023-07-02T02:32:59.463Z,14.52
2023-07-02T02:38:06.874Z,14.45
2023-07-02T02:43:11.261Z,14.37
2023-07-02T02:48:14.287Z,14.31
2023-07-02T02:53:16.107Z,14.28
2023-07-02T02:58:20.209Z,14.22
2023-07-02T03:03:23.144Z,14.19
2023-07-02T03:08:29.638Z,14.16
2023-07-02T03:13:33.845Z,14.19
2023-07-02T03:18:40.431Z,14.20
2023-07-02T03:23:42.537Z,14.19
2023-07-02T03:28:44.245Z,14.17
2023-07-02T03:33:48.154Z,14.19
2023-07-02T03:38:53.347Z,14.21
2023-07-02T03:43:55.407Z,14.20
2023-07-02T03:48:57.447Z,14.19
2023-07-02T03:54:04.145Z,14.21
2023-07-02T03:59:11.738Z,14.26
2023-07-02T04:04:13.667Z,14.30
2023-07-02T04:09:15.568Z,14.33
2023-07-02T04:14:19.705Z,14.34
2023-07-02T04:19:26.322Z,14.33
2023-07-02T04:24:30.739Z,14.33
2023-07-02T04:29:33.228Z,14.32
2023-07-02T04:34:36.024Z,14.38
2023-07-02T04:39:37.834Z,14.43
2023-07-02T04:44:39.670Z,14.46
2023-07-02T04:49:41.387Z,14.74
2023-07-02T04:54:45.684Z,14.80
2023-07-02T04:59:47.566Z,14.80
2023-07-02T05:04:49.301Z,14.76
2023-07-02T05:09:55.857Z,14.87
2023-07-02T05:14:57.662Z,14.91
2023-07-02T05:20:02.184Z,14.92
2023-07-02T05:25:04.775Z,14.96
2023-07-02T05:30:07.437Z,14.96
2023-07-02T05:35:09.419Z,14.88
2023-07-02T05:40:15.919Z,14.82
2023-07-02T05:45:18.141Z,14.91
2023-07-02T05:50:27.303Z,15.13
2023-07-02T05:55:31.101Z,15.21
2023-07-02T06:00:38.804Z,15.29
2023-07-02T06:05:40.649Z,15.43
2023-07-02T06:10:50.421Z,15.58
2023-07-02T06:15:52.675Z,15.86
2023-07-02T06:20:54.629Z,16.23
2023-07-02T06:26:02.517Z,16.40
2023-07-02T06:31:04.465Z,16.30
2023-07-02T06:36:06.273Z,16.13
2023-07-02T06:41:10.472Z,16.32
2023-07-02T06:46:14.303Z,16.48
2023-07-02T06:51:19.425Z,16.34
2023-07-02T06:56:21.353Z,16.35
2023-07-02T07:01:23.207Z,16.48
2023-07-02T07:06:25.719Z,16.55
2023-07-02T07:11:30.489Z,16.70
2023-07-02T07:16:32.342Z,16.82
2023-07-02T07:21:35.436Z,16.93
2023-07-02T07:26:41.998Z,16.93
2023-07-02T07:31:47.039Z,16.83
2023-07-02T07:36:51.061Z,16.75
2023-07-02T07:41:58.187Z,16.69
2023-07-02T07:47:00.074Z,16.91
2023-07-02T07:52:04.757Z,17.03
2023-07-02T07:57:08.982Z,16.87
2023-07-02T08:02:11.019Z,16.79
2023-07-02T08:07:13.074Z,16.99
2023-07-02T08:12:17.665Z,17.20
2023-07-02T08:17:27.133Z,17.48
2023-07-02T08:22:43.440Z,17.84
2023-07-02T08:27:47.531Z,17.96
2023-07-02T08:32:49.512Z,17.92
2023-07-02T08:37:51.289Z,18.01
2023-07-02T08:42:56.089Z,18.05
2023-07-02T08:48:00.938Z,17.98
2023-07-02T08:53:03.090Z,18.19
2023-07-02T08:58:05.129Z,18.23
2023-07-02T09:03:18.967Z,18.17
2023-07-02T09:08:31.977Z,17.88
2023-07-02T09:13:44.293Z,17.84
2023-07-02T09:18:58.933Z,17.82
2023-07-02T09:24:02.907Z,18.09
2023-07-02T09:29:05.511Z,18.50
2023-07-02T09:34:08.093Z,18.39
2023-07-02T09:39:23.534Z,18.29
2023-07-02T09:44:33.245Z,18.52
2023-07-02T09:49:35.224Z,18.51
2023-07-02T09:54:40.166Z,18.72
2023-07-02T09:59:42.038Z,18.83
2023-07-02T10:04:48.176Z,18.89
2023-07-02T10:09:52.454Z,19.10
2023-07-02T10:14:59.099Z,18.87
2023-07-02T10:20:09.480Z,18.51
2023-07-02T10:25:13.879Z,18.27
2023-07-02T10:30:17.893Z,18.59
2023-07-02T10:35:20.105Z,18.88
2023-07-02T10:40:23.856Z,18.67
2023-07-02T10:45:37.850Z,18.96
2023-07-02T10:50:39.998Z,19.19
2023-07-02T10:55:44.687Z,19.31
2023-07-02T11:00:51.567Z,19.59
2023-07-02T11:05:55.658Z,19.67
2023-07-02T11:11:11.850Z,19.62
2023-07-02T11:16:27.354Z,19.54
2023-07-02T11:21:29.785Z,19.65
2023-07-02T11:26:41.930Z,19.71
2023-07-02T11:31:43.884Z,19.66
2023-07-02T11:36:48.810Z,19.64
2023-07-02T11:41:52.689Z,19.90
2023-07-02T11:46:58.396Z,19.84
2023-07-02T11:52:00.350Z,20.32
2023-07-02T11:57:10.065Z,20.58
2023-07-02T12:02:11.960Z,20.55
2023-07-02T12:07:14.534Z,21.07
2023-07-02T12:12:16.235Z,20.84
2023-07-02T12:17:18.001Z,21.13
2023-07-02T12:22:23.736Z,21.08
2023-07-02T12:27:26.834Z,21.74
2023-07-02T12:32:33.515Z,22.18
2023-07-02T12:37:46.422Z,21.24
2023-07-02T12:42:49.187Z,20.58
2023-07-02T12:47:53.237Z,20.26
2023-07-02T12:52:57.605Z,20.02
2023-07-02T12:57:59.338Z,20.10
2023-07-02T13:03:05.620Z,21.47
2023-07-02T13:08:08.006Z,22.23
2023-07-02T13:13:22.267Z,21.69
2023-07-02T13:18:24.475Z,21.58
2023-07-02T13:23:28.491Z,22.50
2023-07-02T13:28:35.853Z,21.94
2023-07-02T13:33:37.718Z,21.97
2023-07-02T13:38:41.981Z,22.90
2023-07-02T13:43:43.738Z,22.56
2023-07-02T13:48:45.862Z,22.80
2023-07-02T13:53:49.881Z,22.80
2023-07-02T13:58:57.758Z,23.01
2023-07-02T14:03:59.851Z,22.96
2023-07-02T14:09:01.861Z,21.95
2023-07-02T14:14:03.825Z,21.87
2023-07-02T14:19:06.003Z,22.39
2023-07-02T14:24:08.265Z,23.75
2023-07-02T14:29:13.630Z,23.45
2023-07-02T14:34:15.682Z,23.32
2023-07-02T14:39:20.771Z,23.41
2023-07-02T14:44:24.921Z,23.04
2023-07-02T14:49:26.812Z,24.23
2023-07-02T14:54:28.701Z,23.40
2023-07-02T14:59:32.885Z,22.38
2023-07-02T15:04:39.440Z,22.45
2023-07-02T15:09:43.801Z,21.87
2023-07-02T15:14:45.550Z,21.87
2023-07-02T15:19:49.820Z,22.35
2023-07-02T15:24:51.549Z,21.43
2023-07-02T15:29:56.324Z,21.81
2023-07-02T15:35:03.621Z,21.28
2023-07-02T15:40:06.463Z,21.38
2023-07-02T15:45:08.984Z,21.47
2023-07-02T15:50:13.193Z,21.49
2023-07-02T15:55:14.974Z,21.15
2023-07-02T16:00:17.702Z,21.45
2023-07-02T16:05:21.900Z,23.39
2023-07-02T16:10:26.358Z,22.17
2023-07-02T16:15:32.874Z,21.28
2023-07-02T16:20:34.967Z,20.84
2023-07-02T16:25:36.878Z,20.48
2023-07-02T16:30:38.669Z,20.29
2023-07-02T16:35:40.590Z,20.02
2023-07-02T16:40:42.929Z,19.79
2023-07-02T16:45:57.692Z,19.52
2023-07-02T16:51:04.840Z,19.36
2023-07-02T16:56:08.207Z,19.34
2023-07-02T17:01:15.227Z,19.73
2023-07-02T17:06:17.101Z,21.26
2023-07-02T17:11:18.878Z,20.33
2023-07-02T17:16:21.510Z,19.60
2023-07-02T17:21:25.531Z,19.36
2023-07-02T17:26:27.257Z,19.12
2023-07-02T17:31:31.517Z,18.94
2023-07-02T17:36:33.339Z,18.78
2023-07-02T17:41:38.552Z,18.73
2023-07-02T17:46:44.773Z,18.67
2023-07-02T17:51:49.503Z,18.55
2023-07-02T17:56:54.638Z,18.55
2023-07-02T18:01:58.641Z,18.49
2023-07-02T18:07:06.202Z,18.69
2023-07-02T18:12:15.771Z,18.68
2023-07-02T18:17:18.961Z,18.46
2023-07-02T18:22:23.881Z,18.41
2023-07-02T18:27:25.730Z,18.29
2023-07-02T18:32:31.093Z,18.16
2023-07-02T18:37:39.324Z,18.08
2023-07-02T18:42:43.580Z,17.98
2023-07-02T18:47:45.992Z,18.00
2023-07-02T18:52:49.520Z,17.97
2023-07-02T18:57:51.423Z,17.89
2023-07-02T19:02:53.236Z,17.90
2023-07-02T19:07:57.697Z,17.88
2023-07-02T19:13:00.328Z,17.86
2023-07-02T19:18:05.196Z,17.86
2023-07-02T19:23:07.154Z,17.64
2023-07-02T19:28:11.558Z,17.53
2023-07-02T19:33:18.966Z,17.46
2023-07-02T19:38:20.999Z,17.42
2023-07-02T19:43:22.870Z,17.33
2023-07-02T19:48:24.694Z,17.27
2023-07-02T19:53:32.347Z,17.19
2023-07-02T19:58:37.149Z,17.08
2023-07-02T20:03:39.743Z,17.06
2023-07-02T20:08:41.828Z,16.94
2023-07-02T20:13:43.802Z,16.88
2023-07-02T20:18:47.349Z,16.78
2023-07-02T20:23:51.419Z,16.73
2023-07-02T20:28:53.196Z,16.67
2023-07-02T20:33:54.899Z,16.58
2023-07-02T20:39:00.327Z,16.48
2023-07-02T20:44:02.487Z,16.45
2023-07-02T20:49:05.393Z,16.41
2023-07-02T20:54:08.455Z,16.39
2023-07-02T20:59:10.308Z,16.38
2023-07-02T21:04:15.037Z,16.36
2023-07-02T21:09:19.101Z,16.33
2023-07-02T21:14:20.896Z,16.30
2023-07-02T21:19:22.650Z,16.25
2023-07-02T21:24:24.341Z,16.17
2023-07-02T21:29:26.095Z,16.13
2023-07-02T21:34:30.105Z,16.12
2023-07-02T21:39:36.655Z,16.13
2023-07-02T21:44:40.652Z,16.09
2023-07-02T21:49:44.571Z,16.04
2023-07-02T21:54:48.545Z,16.06
2023-07-02T21:59:50.363Z,16.04
2023-07-02T22:04:52.165Z,16.03
2023-07-02T22:09:53.922Z,16.04
2023-07-02T22:14:58.939Z,16.00
2023-07-02T22:20:12.132Z,15.96
2023-07-02T22:25:14.778Z,15.95
2023-07-02T22:30:18.997Z,15.90
2023-07-02T22:35:23.672Z,15.86
2023-07-02T22:40:30.832Z,15.84
2023-07-02T22:45:39.282Z,15.79
2023-07-02T22:50:41.016Z,15.73
2023-07-02T22:55:42.707Z,15.66
2023-07-02T23:00:44.453Z,15.65
2023-07-02T23:05:50.932Z,15.62
2023-07-02T23:10:53.021Z,15.58
2023-07-02T23:15:54.806Z,15.55
2023-07-02T23:20:56.497Z,15.53
2023-07-02T23:26:01.347Z,15.49
2023-07-02T23:31:10.583Z,15.48
2023-07-02T23:36:12.349Z,15.45
2023-07-02T23:41:14.176Z,15.42
2023-07-02T23:46:18.385Z,15.35
2023-07-02T23:51:22.463Z,15.27
2023-07-02T23:56:28.021Z,15.19
